createdAt,value
2023-01-13T00:01:23.629Z,0.6354515050167224
2023-01-13T00:07:51.845Z,0.7491638795986622
2023-01-13T00:19:01.933Z,0.2608695652173913
2023-01-13T00:25:26.479Z,0.43478260869565216
2023-01-13T00:31:53.108Z,0.34782608695652173
2023-01-13T00:38:18.299Z,0.17391304347826086
2023-01-13T00:44:44.672Z,0.17391304347826086
2023-01-13T00:51:11.403Z,0.3411371237458194
2023-01-13T00:58:54.741Z,0.2608695652173913
2023-01-13T01:11:20.785Z,0.5217391304347826
2023-01-13T01:18:22.726Z,1.5351170568561874
2023-01-13T01:24:49.373Z,1.2274247491638797
2023-01-13T01:31:16.408Z,0.9565217391304348
2023-01-13T01:37:40.833Z,1.0100334448160535
2023-01-13T01:47:52.890Z,1.0668896321070234
2023-01-13T01:54:22.854Z,1.3277591973244147
2023-01-13T02:00:47.605Z,1.3578595317725752
2023-01-13T02:07:11.945Z,1.2441471571906355
2023-01-13T02:13:37.185Z,1.68561872909699
2023-01-13T02:20:07.036Z,1.625418060200669
2023-01-13T02:26:32.792Z,2.0334448160535117
2023-01-13T02:37:43.747Z,1.6889632107023411
2023-01-13T02:46:33.887Z,1.3411371237458194
2023-01-13T02:56:11.369Z,1.6755852842809364
2023-01-13T03:06:27.496Z,1.451505016722408
2023-01-13T03:12:55.821Z,1.4782608695652173
2023-01-13T03:19:18.789Z,1.4448160535117056
2023-01-13T03:25:43.173Z,2.528428093645485
2023-01-13T03:32:08.435Z,2.160535117056856
2023-01-13T03:39:25.159Z,2.6655518394648827
2023-01-13T03:45:53.703Z,1.8127090301003344
2023-01-13T03:52:18.033Z,2.4247491638795986
2023-01-13T03:58:45.019Z,1.6822742474916388
2023-01-13T04:05:15.867Z,2.1337792642140467
2023-01-13T04:11:47.108Z,2.137123745819398
2023-01-13T04:19:20.529Z,2.180602006688963
2023-01-13T04:32:09.107Z,1.5719063545150502
2023-01-13T04:38:34.760Z,1.4280936454849498
2023-01-13T04:51:09.270Z,1.979933110367893
2023-01-13T04:57:35.061Z,2.0836120401337794
2023-01-13T05:04:00.973Z,2.6020066889632107
2023-01-13T05:10:24.711Z,1.608695652173913
2023-01-13T05:19:27.971Z,2.698996655518395
2023-01-13T05:25:52.917Z,2.0936454849498327
2023-01-13T05:32:20.942Z,2.3846153846153846
2023-01-13T05:38:47.756Z,3.0668896321070234
2023-01-13T05:45:15.745Z,2.4849498327759196
2023-01-13T06:01:59.168Z,2.608695652173913
2023-01-13T06:08:28.183Z,2.8160535117056855
2023-01-13T06:14:56.129Z,2.9264214046822743
2023-01-13T06:21:48.645Z,2.5986622073578594
2023-01-13T06:28:15.176Z,1.8561872909698998
2023-01-13T06:34:44.494Z,1.7324414715719063
2023-01-13T06:44:27.290Z,2.391304347826087
2023-01-13T06:56:33.312Z,3.0535117056856187
2023-01-13T07:03:00.667Z,2.080267558528428
2023-01-13T07:09:27.315Z,1.9230769230769231
2023-01-13T07:20:53.224Z,2.137123745819398
2023-01-13T07:27:20.867Z,1.5585284280936456
2023-01-13T07:36:53.081Z,2.4648829431438126
2023-01-13T07:43:20.725Z,2.719063545150502
2023-01-13T07:49:50.387Z,1.645484949832776
2023-01-13T07:56:25.573Z,1.7993311036789297
2023-01-13T08:02:51.414Z,1.5117056856187292
2023-01-13T08:09:16.803Z,1.5050167224080269
2023-01-13T08:15:42.948Z,3.1739130434782608
2023-01-13T08:33:12.128Z,1.0702341137123745
2023-01-13T08:39:36.881Z,1.4448160535117056
2023-01-13T08:46:02.176Z,1.0100334448160535
2023-01-13T08:52:26.646Z,2.0301003344481607
2023-01-13T08:58:51.762Z,1.1505016722408026
2023-01-13T09:05:17.828Z,1.0167224080267558
2023-01-13T09:11:42.877Z,1.5250836120401339
2023-01-13T09:18:09.306Z,1.140468227424749
2023-01-13T09:24:33.751Z,1.2441471571906355
2023-01-13T09:31:00.022Z,1.0167224080267558
2023-01-13T09:37:24.180Z,1.2876254180602007
2023-01-13T09:43:48.992Z,1.2173913043478262
2023-01-13T09:50:13.761Z,1.5317725752508362
2023-01-13T09:56:38.577Z,2.060200668896321
2023-01-13T10:03:04.720Z,1.491638795986622
2023-01-13T10:12:16.608Z,1.0568561872909699
2023-01-13T10:18:42.196Z,2.2876254180602005
2023-01-13T10:25:10.397Z,1.3043478260869565
2023-01-13T10:31:35.341Z,2.290969899665552
2023-01-13T10:38:00.554Z,0.919732441471572
2023-01-13T10:44:25.021Z,1.6187290969899666
2023-01-13T10:50:50.464Z,1.625418060200669
2023-01-13T10:57:14.765Z,1.0167224080267558
2023-01-13T11:03:39.128Z,0.5351170568561873
2023-01-13T11:10:04.052Z,1.4414715719063544
2023-01-13T11:17:56.683Z,1.8127090301003344
2023-01-13T11:25:34.555Z,2.150501672240803
2023-01-13T11:38:43.173Z,1.1705685618729098
2023-01-13T11:49:42.121Z,1.7926421404682273
2023-01-13T11:56:06.706Z,1.354515050167224
2023-01-13T12:02:31.026Z,1.2307692307692308
2023-01-13T12:08:56.026Z,1.625418060200669
2023-01-13T12:18:02.249Z,1.7625418060200668
2023-01-13T12:30:27.721Z,0.8160535117056856
2023-01-13T12:41:41.982Z,1.0133779264214047
2023-01-13T12:48:07.488Z,1.6622073578595318
2023-01-13T12:54:32.541Z,0.8361204013377926
2023-01-13T13:00:58.945Z,1.5117056856187292
2023-01-13T13:07:23.590Z,0.8762541806020067
2023-01-13T13:13:48.958Z,1.0635451505016722
2023-01-13T13:20:13.811Z,0.8762541806020067
2023-01-13T13:26:38.497Z,1.3010033444816054
2023-01-13T13:34:11.306Z,0.7357859531772575
2023-01-13T13:40:36.101Z,0.7692307692307693
2023-01-13T13:47:01.292Z,0.7157190635451505
2023-01-13T13:53:26.696Z,1.3478260869565217
2023-01-13T13:59:51.734Z,1.4247491638795986
2023-01-13T14:11:20.736Z,1.1103678929765886
2023-01-13T14:17:46.415Z,0.9163879598662207
2023-01-13T14:28:34.560Z,1.020066889632107
2023-01-13T14:34:59.560Z,1.4548494983277591
2023-01-13T14:44:58.554Z,0.9230769230769231
2023-01-13T14:51:23.206Z,1.648829431438127
2023-01-13T14:57:49.606Z,1.3043478260869565
2023-01-13T15:04:16.105Z,1.274247491638796
2023-01-13T15:10:50.692Z,1.3411371237458194
2023-01-13T15:17:14.759Z,0.9832775919732442
2023-01-13T15:23:40.545Z,0.6488294314381271
2023-01-13T15:30:05.835Z,1.3377926421404682
2023-01-13T15:36:27.787Z,1.0836120401337792
2023-01-13T15:46:42.852Z,1.1973244147157192
2023-01-13T15:53:04.619Z,1.3177257525083612
2023-01-13T15:59:26.154Z,1.0100334448160535
2023-01-13T16:05:48.141Z,1.0635451505016722
2023-01-13T16:12:10.355Z,0.6086956521739131
2023-01-13T16:18:32.250Z,0.802675585284281
2023-01-13T16:24:54.242Z,0.8695652173913043
2023-01-13T16:36:09.701Z,0.43478260869565216
2023-01-13T16:42:34.003Z,1.6622073578595318
2023-01-13T16:48:56.249Z,1.0100334448160535
2023-01-13T17:00:24.663Z,0.7959866220735786
2023-01-13T17:06:46.086Z,0.903010033444816
2023-01-13T17:14:57.114Z,0.9297658862876255
2023-01-13T17:24:53.356Z,1.4782608695652173
2023-01-13T17:34:00.822Z,0.9632107023411371
2023-01-13T17:40:49.512Z,1.120401337792642
2023-01-13T17:47:10.450Z,0.9632107023411371
2023-01-13T17:54:23.847Z,1.5919732441471572
2023-01-13T18:00:45.759Z,0.9264214046822743
2023-01-13T18:07:07.263Z,0.4214046822742475
2023-01-13T18:13:29.100Z,0.45484949832775917
2023-01-13T18:19:52.178Z,0.5016722408026756
2023-01-13T18:26:13.521Z,0.862876254180602
2023-01-13T18:34:46.333Z,1.6555183946488294
2023-01-13T18:41:08.725Z,1.4548494983277591
2023-01-13T18:47:30.608Z,0.8294314381270903
2023-01-13T18:55:52.186Z,0.9632107023411371
2023-01-13T19:04:06.648Z,1.3444816053511706
2023-01-13T19:10:28.800Z,0.9431438127090301
2023-01-13T19:16:51.775Z,0.882943143812709
2023-01-13T19:23:14.366Z,1.173913043478261
2023-01-13T19:29:36.025Z,0.4214046822742475
2023-01-13T19:35:58.552Z,1.4682274247491638
2023-01-13T19:42:21.182Z,0.4682274247491639
2023-01-13T19:48:54.491Z,0.6153846153846154
2023-01-13T19:58:22.632Z,0.6421404682274248
2023-01-13T20:04:44.578Z,0.6688963210702341
2023-01-13T20:15:16.861Z,1.060200668896321
2023-01-13T20:21:54.200Z,1.0635451505016722
2023-01-13T20:28:20.042Z,2.2842809364548495
2023-01-13T20:34:45.364Z,0.7892976588628763
2023-01-13T20:41:11.395Z,1.7591973244147157
2023-01-13T20:47:35.421Z,0.8093645484949833
2023-01-13T20:54:01.680Z,1.3110367892976589
2023-01-13T21:00:25.883Z,0.5083612040133779
2023-01-13T21:06:48.449Z,1.0234113712374582
2023-01-13T21:13:10.543Z,0.33444816053511706
2023-01-13T21:19:33.135Z,0.9230769230769231
2023-01-13T21:25:56.300Z,0.5217391304347826
2023-01-13T21:32:18.726Z,0.9096989966555183
2023-01-13T21:38:43.751Z,0.9632107023411371
2023-01-13T21:45:06.983Z,1.2809364548494984
2023-01-13T21:51:30.315Z,0.568561872909699
2023-01-13T21:57:53.587Z,0.802675585284281
2023-01-13T22:04:16.632Z,1.100334448160535
2023-01-13T22:10:45.848Z,0.6755852842809364
2023-01-13T22:17:09.898Z,1.0568561872909699
2023-01-13T22:23:32.337Z,1.1270903010033444
2023-01-13T22:29:57.551Z,1.1973244147157192
2023-01-13T22:36:21.287Z,1.1137123745819397
2023-01-13T22:44:57.547Z,0.6822742474916388
2023-01-13T22:51:23.167Z,0.842809364548495
2023-01-13T22:57:48.850Z,0.6220735785953178
2023-01-13T23:05:18.500Z,0.725752508361204
2023-01-13T23:11:47.957Z,0.5217391304347826
2023-01-13T23:18:24.129Z,1.0936454849498327
2023-01-13T23:25:44.946Z,0.41471571906354515
2023-01-13T23:32:09.122Z,0.919732441471572
2023-01-13T23:38:35.876Z,0.3879598662207358
2023-01-13T23:45:02.996Z,0.7157190635451505
2023-01-13T23:51:30.044Z,0.6889632107023411
